createdAt,value
2019-05-03T00:01:14.377Z,97188.22
2019-05-03T00:03:44.628Z,97188.38
2019-05-03T00:06:14.831Z,97188.37
2019-05-03T00:08:45.077Z,97197.36
2019-05-03T00:11:15.307Z,97192.44
2019-05-03T00:13:45.617Z,97196.36
2019-05-03T00:16:17.491Z,97200.61
2019-05-03T00:18:47.808Z,97203.22
2019-05-03T00:21:18.005Z,97198.91
2019-05-03T00:23:48.265Z,97197.44
2019-05-03T00:26:18.486Z,97199.55
2019-05-03T00:28:48.822Z,97202.47
2019-05-03T00:31:19.032Z,97203.27
2019-05-03T00:33:51.679Z,97200.75
2019-05-03T00:36:23.608Z,97199.26
2019-05-03T00:38:55.650Z,97203.65
2019-05-03T00:41:25.862Z,97202.98
2019-05-03T00:43:56.108Z,97206.88
2019-05-03T00:46:26.310Z,97215.33
2019-05-03T00:48:56.526Z,97202.22
2019-05-03T00:51:26.778Z,97204.02
2019-05-03T00:53:56.990Z,97201.96
2019-05-03T00:56:27.224Z,97198.83
2019-05-03T00:58:59.306Z,97205.98
2019-05-03T01:01:29.536Z,97203.30
2019-05-03T01:04:01.675Z,97207.02
2019-05-03T01:06:32.110Z,97206.96
2019-05-03T01:09:04.040Z,97209.90
2019-05-03T01:11:34.262Z,97205.42
2019-05-03T01:14:04.736Z,97207.86
2019-05-03T01:16:34.947Z,97210.33
2019-05-03T01:19:05.412Z,97210.14
2019-05-03T01:21:35.634Z,97214.55
2019-05-03T01:24:06.010Z,97215.15
2019-05-03T01:26:36.297Z,97212.60
2019-05-03T01:29:06.582Z,97208.36
2019-05-03T01:31:36.872Z,97212.63
2019-05-03T01:34:07.163Z,97224.89
2019-05-03T01:36:37.403Z,97227.11
2019-05-03T01:39:07.638Z,97224.73
2019-05-03T01:41:37.876Z,97230.64
2019-05-03T01:44:08.103Z,97225.34
2019-05-03T01:46:38.356Z,97225.28
2019-05-03T01:49:12.929Z,97229.82
2019-05-03T01:51:44.810Z,97229.31
2019-05-03T01:54:15.075Z,97227.82
2019-05-03T01:56:55.937Z,97228.09
2019-05-03T01:59:17.405Z,97229.33
2019-05-03T02:01:52.442Z,97230.44
2019-05-03T02:04:41.762Z,97233.20
2019-05-03T02:07:12.058Z,97239.35
2019-05-03T02:09:42.259Z,97245.03
2019-05-03T02:12:12.774Z,97244.23
2019-05-03T02:14:43.192Z,97232.88
2019-05-03T02:17:13.484Z,97236.77
2019-05-03T02:19:43.717Z,97233.09
2019-05-03T02:22:13.944Z,97239.06
2019-05-03T02:24:44.135Z,97237.06
2019-05-03T02:27:14.420Z,97240.94
2019-05-03T02:29:44.662Z,97240.84
2019-05-03T02:32:16.513Z,97238.01
2019-05-03T02:34:46.766Z,97234.73
2019-05-03T02:37:16.992Z,97235.72
2019-05-03T02:39:53.099Z,97232.48
2019-05-03T02:42:26.309Z,97236.19
2019-05-03T02:44:55.495Z,97234.52
2019-05-03T02:47:39.178Z,97233.86
2019-05-03T02:50:11.914Z,97235.72
2019-05-03T02:52:42.194Z,97235.92
2019-05-03T02:55:15.651Z,97236.09
2019-05-03T02:57:46.541Z,97234.48
2019-05-03T03:00:21.477Z,97234.48
2019-05-03T03:02:51.699Z,97240.05
2019-05-03T03:05:25.197Z,97240.70
2019-05-03T03:07:55.911Z,97235.89
2019-05-03T03:10:27.590Z,97241.47
2019-05-03T03:13:00.335Z,97240.51
2019-05-03T03:15:32.374Z,97238.69
2019-05-03T03:18:02.671Z,97238.36
2019-05-03T03:20:35.991Z,97238.67
2019-05-03T03:23:08.891Z,97240.45
2019-05-03T03:25:42.594Z,97241.19
2019-05-03T03:28:16.029Z,97242.06
2019-05-03T03:31:28.365Z,97236.97
2019-05-03T03:34:07.668Z,97236.53
2019-05-03T03:36:54.421Z,97233.70
2019-05-03T03:39:11.554Z,97233.44
2019-05-03T03:41:45.120Z,97241.27
2019-05-03T03:44:17.531Z,97242.87
2019-05-03T03:46:49.982Z,97241.19
2019-05-03T03:49:21.286Z,97242.16
2019-05-03T03:51:56.342Z,97236.59
2019-05-03T03:54:26.713Z,97238.37
2019-05-03T03:57:03.954Z,97240.46
2019-05-03T03:59:29.736Z,97250.35
2019-05-03T04:02:00.019Z,97252.37
2019-05-03T04:04:30.533Z,97249.58
2019-05-03T04:07:01.752Z,97255.59
2019-05-03T04:09:32.781Z,97256.49
2019-05-03T04:12:05.813Z,97256.83
2019-05-03T04:14:39.554Z,97260.19
2019-05-03T04:17:11.561Z,97259.52
2019-05-03T04:19:45.437Z,97265.20
2019-05-03T04:22:16.638Z,97265.81
2019-05-03T04:24:47.014Z,97273.13
2019-05-03T04:27:23.152Z,97278.58
2019-05-03T04:29:49.660Z,97282.34
2019-05-03T04:32:20.530Z,97289.19
2019-05-03T04:34:51.079Z,97288.37
2019-05-03T04:37:21.309Z,97294.58
2019-05-03T04:39:51.498Z,97295.73
2019-05-03T04:42:21.741Z,97290.80
2019-05-03T04:44:51.927Z,97295.91
2019-05-03T04:47:22.163Z,97303.08
2019-05-03T04:49:55.277Z,97303.45
2019-05-03T04:52:25.978Z,97301.85
2019-05-03T04:54:58.073Z,97309.11
2019-05-03T04:57:39.880Z,97311.30
2019-05-03T05:00:00.425Z,97317.72
2019-05-03T05:02:30.709Z,97322.88
2019-05-03T05:05:00.926Z,97327.38
2019-05-03T05:07:31.181Z,97336.36
2019-05-03T05:10:01.381Z,97342.86
2019-05-03T05:12:31.610Z,97343.08
2019-05-03T05:15:01.882Z,97342.26
2019-05-03T05:17:50.111Z,97344.19
2019-05-03T05:20:21.989Z,97348.80
2019-05-03T05:22:54.359Z,97352.28
2019-05-03T05:25:25.770Z,97355.06
2019-05-03T05:28:06.718Z,97355.40
2019-05-03T05:30:36.950Z,97360.58
2019-05-03T05:33:08.822Z,97368.23
2019-05-03T05:35:39.132Z,97364.30
2019-05-03T05:38:09.354Z,97368.09
2019-05-03T05:40:39.570Z,97383.52
2019-05-03T05:43:09.796Z,97374.27
2019-05-03T05:45:40.048Z,97372.74
2019-05-03T05:48:15.377Z,97372.83
2019-05-03T05:50:46.115Z,97383.11
2019-05-03T05:53:16.321Z,97378.52
2019-05-03T05:55:48.187Z,97383.67
2019-05-03T05:58:20.052Z,97385.89
2019-05-03T06:01:05.503Z,97399.53
2019-05-03T06:03:36.222Z,97395.11
2019-05-03T06:06:08.281Z,97394.57
2019-05-03T06:08:44.663Z,97398.30
2019-05-03T06:11:16.751Z,97402.56
2019-05-03T06:13:51.301Z,97408.91
2019-05-03T06:16:24.573Z,97407.66
2019-05-03T06:18:56.527Z,97409.64
2019-05-03T06:21:31.012Z,97401.94
2019-05-03T06:24:04.477Z,97402.66
2019-05-03T06:26:36.418Z,97399.02
2019-05-03T06:29:07.719Z,97403.29
2019-05-03T06:31:55.796Z,97409.48
2019-05-03T06:34:27.074Z,97418.03
2019-05-03T06:36:58.966Z,97406.66
2019-05-03T06:39:29.447Z,97418.41
2019-05-03T06:42:01.275Z,97417.45
2019-05-03T06:44:31.519Z,97424.54
2019-05-03T06:47:08.741Z,97422.23
2019-05-03T06:49:34.566Z,97425.13
2019-05-03T06:52:05.997Z,97422.89
2019-05-03T06:54:37.876Z,97430.05
2019-05-03T06:57:09.936Z,97428.19
2019-05-03T06:59:45.164Z,97429.17
2019-05-03T07:02:32.927Z,97429.84
2019-05-03T07:05:05.146Z,97434.70
2019-05-03T07:07:37.105Z,97440.84
2019-05-03T07:10:10.381Z,97442.95
2019-05-03T07:13:00.611Z,97458.78
2019-05-03T07:15:30.987Z,97473.95
2019-05-03T07:18:01.222Z,97472.83
2019-05-03T07:20:33.076Z,97477.43
2019-05-03T07:23:04.384Z,97481.86
2019-05-03T07:25:34.704Z,97490.19
2019-05-03T07:28:04.931Z,97487.62
2019-05-03T07:30:37.072Z,97489.30
2019-05-03T07:33:08.791Z,97484.69
2019-05-03T07:35:38.999Z,97494.94
2019-05-03T07:38:09.201Z,97495.56
2019-05-03T07:40:39.441Z,97492.03
2019-05-03T07:43:09.641Z,97490.45
2019-05-03T07:45:39.921Z,97484.58
2019-05-03T07:48:10.136Z,97494.05
2019-05-03T07:50:40.366Z,97493.72
2019-05-03T07:53:10.589Z,97492.20
2019-05-03T07:55:51.269Z,97487.97
2019-05-03T07:58:25.919Z,97485.82
2019-05-03T08:01:06.105Z,97485.87
2019-05-03T08:03:29.875Z,97490.39
2019-05-03T08:06:00.151Z,97491.74
2019-05-03T08:08:30.408Z,97488.42
2019-05-03T08:11:00.655Z,97492.11
2019-05-03T08:13:31.391Z,97493.50
2019-05-03T08:16:01.600Z,97489.34
2019-05-03T08:18:31.809Z,97495.94
2019-05-03T08:21:02.035Z,97498.83
2019-05-03T08:23:32.239Z,97491.34
2019-05-03T08:26:02.470Z,97487.52
2019-05-03T08:28:34.586Z,97496.13
2019-05-03T08:31:15.826Z,97491.52
2019-05-03T08:33:59.677Z,97499.98
2019-05-03T08:36:31.586Z,97494.25
2019-05-03T08:39:01.823Z,97496.52
2019-05-03T08:41:35.179Z,97495.72
2019-05-03T08:44:05.692Z,97501.16
2019-05-03T08:46:35.886Z,97500.27
2019-05-03T08:49:06.117Z,97495.14
2019-05-03T08:51:36.302Z,97493.55
2019-05-03T08:54:06.526Z,97486.70
2019-05-03T08:56:36.753Z,97480.97
2019-05-03T08:59:06.951Z,97493.40
2019-05-03T09:01:39.443Z,97487.55
2019-05-03T09:04:09.249Z,97482.95
2019-05-03T09:06:39.462Z,97488.43
2019-05-03T09:09:20.645Z,97485.72
2019-05-03T09:11:51.110Z,97477.84
2019-05-03T09:14:21.366Z,97478.47
2019-05-03T09:16:51.586Z,97481.96
2019-05-03T09:19:21.893Z,97472.71
2019-05-03T09:21:52.437Z,97473.41
2019-05-03T09:24:24.451Z,97474.48
2019-05-03T09:26:55.607Z,97474.28
2019-05-03T09:29:26.059Z,97477.61
2019-05-03T09:31:56.288Z,97482.91
2019-05-03T09:34:26.510Z,97479.27
2019-05-03T09:36:56.728Z,97478.75
2019-05-03T09:39:26.999Z,97477.61
2019-05-03T09:41:57.208Z,97474.30
2019-05-03T09:44:27.418Z,97474.66
2019-05-03T09:46:57.675Z,97476.93
2019-05-03T09:49:27.938Z,97474.72
2019-05-03T09:52:08.441Z,97471.21
2019-05-03T09:54:38.472Z,97466.34
2019-05-03T09:57:08.789Z,97465.69
2019-05-03T09:59:38.991Z,97469.63
2019-05-03T10:02:09.333Z,97476.45
2019-05-03T10:04:39.603Z,97474.12
2019-05-03T10:07:09.910Z,97475.12
2019-05-03T10:09:40.213Z,97476.75
2019-05-03T10:12:22.172Z,97470.48
2019-05-03T10:14:54.970Z,97476.00
2019-05-03T10:17:34.928Z,97471.13
2019-05-03T10:20:10.850Z,97475.14
2019-05-03T10:22:41.070Z,97478.96
2019-05-03T10:25:30.652Z,97482.16
2019-05-03T10:28:00.895Z,97477.77
2019-05-03T10:30:31.154Z,97474.80
2019-05-03T10:33:03.036Z,97479.81
2019-05-03T10:35:35.324Z,97484.72
2019-05-03T10:38:05.964Z,97473.11
2019-05-03T10:40:37.169Z,97474.41
2019-05-03T10:43:10.282Z,97478.14
2019-05-03T10:45:40.505Z,97479.80
2019-05-03T10:48:10.872Z,97468.72
2019-05-03T10:50:41.101Z,97465.25
2019-05-03T10:53:12.939Z,97460.14
2019-05-03T10:55:45.188Z,97457.80
2019-05-03T10:58:17.374Z,97457.66
2019-05-03T11:00:53.151Z,97458.31
2019-05-03T11:03:21.826Z,97453.44
2019-05-03T11:05:52.027Z,97457.80
2019-05-03T11:08:22.227Z,97458.13
2019-05-03T11:10:52.475Z,97452.38
2019-05-03T11:13:22.662Z,97451.39
2019-05-03T11:15:54.828Z,97454.77
2019-05-03T11:18:25.285Z,97447.31
2019-05-03T11:20:55.635Z,97440.46
2019-05-03T11:23:25.911Z,97441.74
2019-05-03T11:25:56.149Z,97439.27
2019-05-03T11:28:27.115Z,97436.50
2019-05-03T11:31:02.195Z,97434.78
2019-05-03T11:33:32.549Z,97438.65
2019-05-03T11:36:04.484Z,97436.17
2019-05-03T11:38:36.358Z,97427.77
2019-05-03T11:41:06.622Z,97431.45
2019-05-03T11:43:36.915Z,97427.66
2019-05-03T11:46:07.141Z,97428.38
2019-05-03T11:48:37.378Z,97428.67
2019-05-03T11:51:07.727Z,97430.45
2019-05-03T11:53:37.945Z,97422.76
2019-05-03T11:56:08.248Z,97437.79
2019-05-03T11:58:38.476Z,97432.62
2019-05-03T12:01:15.382Z,97417.94
2019-05-03T12:03:45.196Z,97429.53
2019-05-03T12:06:15.842Z,97424.45
2019-05-03T12:08:46.300Z,97427.23
2019-05-03T12:11:16.513Z,97426.05
2019-05-03T12:13:46.710Z,97421.38
2019-05-03T12:16:25.543Z,97431.95
2019-05-03T12:18:53.676Z,97425.67
2019-05-03T12:21:22.259Z,97428.89
2019-05-03T12:23:55.486Z,97418.34
2019-05-03T12:26:27.125Z,97424.30
2019-05-03T12:28:56.714Z,97429.31
2019-05-03T12:31:36.630Z,97416.77
2019-05-03T12:33:58.894Z,97423.75
2019-05-03T12:36:29.186Z,97421.04
2019-05-03T12:38:59.386Z,97421.14
2019-05-03T12:41:29.623Z,97415.96
2019-05-03T12:43:59.925Z,97413.34
2019-05-03T12:46:30.144Z,97415.05
2019-05-03T12:49:00.336Z,97410.70
2019-05-03T12:51:30.660Z,97412.75
2019-05-03T12:54:00.985Z,97411.94
2019-05-03T12:56:32.955Z,97412.86
2019-05-03T12:59:10.379Z,97399.67
2019-05-03T13:01:47.918Z,97401.95
2019-05-03T13:04:19.775Z,97407.45
2019-05-03T13:07:07.786Z,97405.41
2019-05-03T13:09:38.008Z,97406.09
2019-05-03T13:12:09.879Z,97405.56
2019-05-03T13:14:40.137Z,97403.19
2019-05-03T13:17:11.386Z,97407.08
2019-05-03T13:19:41.810Z,97410.30
2019-05-03T13:22:12.785Z,97402.83
2019-05-03T13:24:44.707Z,97402.85
2019-05-03T13:27:14.994Z,97408.66
2019-05-03T13:29:45.465Z,97405.27
2019-05-03T13:32:15.764Z,97404.04
2019-05-03T13:34:45.987Z,97405.64
2019-05-03T13:37:16.183Z,97397.53
2019-05-03T13:39:46.407Z,97391.48
2019-05-03T13:42:16.648Z,97394.16
2019-05-03T13:44:46.854Z,97389.75
2019-05-03T13:47:17.093Z,97385.02
2019-05-03T13:49:47.349Z,97386.38
2019-05-03T13:52:17.612Z,97381.64
2019-05-03T13:54:47.966Z,97379.58
2019-05-03T13:57:18.311Z,97377.88
2019-05-03T13:59:48.556Z,97367.92
2019-05-03T14:02:19.676Z,97366.69
2019-05-03T14:04:52.792Z,97368.16
2019-05-03T14:07:21.792Z,97373.66
2019-05-03T14:09:51.988Z,97369.25
2019-05-03T14:12:24.286Z,97362.19
2019-05-03T14:14:55.849Z,97375.19
2019-05-03T14:17:28.319Z,97374.39
2019-05-03T14:20:00.262Z,97381.00
2019-05-03T14:22:32.132Z,97373.63
2019-05-03T14:25:04.500Z,97374.56
2019-05-03T14:27:34.851Z,97377.83
2019-05-03T14:30:08.920Z,97375.01
2019-05-03T14:32:39.242Z,97375.42
2019-05-03T14:35:09.702Z,97373.22
2019-05-03T14:37:39.988Z,97374.64
2019-05-03T14:40:10.339Z,97378.11
2019-05-03T14:42:40.581Z,97377.94
2019-05-03T14:45:10.882Z,97378.17
2019-05-03T14:47:41.205Z,97369.28
2019-05-03T14:50:11.931Z,97374.77
2019-05-03T14:52:42.217Z,97380.05
2019-05-03T14:55:14.796Z,97367.85
2019-05-03T14:57:52.548Z,97372.20
2019-05-03T15:00:25.095Z,97378.50
2019-05-03T15:02:57.942Z,97376.89
2019-05-03T15:05:28.511Z,97377.89
2019-05-03T15:07:58.802Z,97371.91
2019-05-03T15:10:29.018Z,97375.47
2019-05-03T15:12:59.232Z,97372.28
2019-05-03T15:15:29.461Z,97368.19
2019-05-03T15:17:59.672Z,97364.80
2019-05-03T15:20:29.898Z,97371.06
2019-05-03T15:23:00.135Z,97367.16
2019-05-03T15:25:30.325Z,97363.95
2019-05-03T15:28:00.580Z,97357.28
2019-05-03T15:30:30.787Z,97349.94
2019-05-03T15:33:01.115Z,97358.85
2019-05-03T15:35:31.314Z,97365.50
2019-05-03T15:38:01.505Z,97361.16
2019-05-03T15:40:31.726Z,97351.78
2019-05-03T15:43:05.540Z,97357.41
2019-05-03T15:45:44.973Z,97356.66
2019-05-03T15:48:24.577Z,97357.38
2019-05-03T15:50:55.442Z,97361.16
2019-05-03T15:53:25.807Z,97358.23
2019-05-03T15:55:56.047Z,97348.87
2019-05-03T15:58:26.256Z,97350.84
2019-05-03T16:00:56.457Z,97345.86
2019-05-03T16:03:26.662Z,97343.52
2019-05-03T16:05:56.864Z,97341.64
2019-05-03T16:08:27.069Z,97343.11
2019-05-03T16:10:57.582Z,97342.12
2019-05-03T16:13:27.788Z,97337.86
2019-05-03T16:15:58.026Z,97334.91
2019-05-03T16:18:28.265Z,97337.05
2019-05-03T16:20:58.686Z,97332.62
2019-05-03T16:23:29.098Z,97335.70
2019-05-03T16:25:59.431Z,97344.94
2019-05-03T16:28:49.767Z,97339.59
2019-05-03T16:31:26.559Z,97338.61
2019-05-03T16:33:56.908Z,97330.77
2019-05-03T16:36:27.314Z,97332.52
2019-05-03T16:38:57.720Z,97337.23
2019-05-03T16:41:28.009Z,97342.02
2019-05-03T16:43:58.471Z,97326.34
2019-05-03T16:46:28.905Z,97325.69
2019-05-03T16:48:59.143Z,97324.17
2019-05-03T16:51:29.354Z,97330.72
2019-05-03T16:53:59.585Z,97323.41
2019-05-03T16:56:29.779Z,97321.44
2019-05-03T16:59:00.089Z,97314.51
2019-05-03T17:01:30.301Z,97322.83
2019-05-03T17:04:02.206Z,97326.42
2019-05-03T17:06:39.222Z,97319.41
2019-05-03T17:09:14.529Z,97322.36
2019-05-03T17:11:46.448Z,97323.24
2019-05-03T17:14:16.666Z,97324.08
2019-05-03T17:16:46.863Z,97335.38
2019-05-03T17:19:17.252Z,97334.39
2019-05-03T17:21:47.751Z,97329.78
2019-05-03T17:24:18.082Z,97332.69
2019-05-03T17:26:48.275Z,97334.21
2019-05-03T17:29:18.488Z,97339.45
2019-05-03T17:31:48.711Z,97344.02
2019-05-03T17:34:18.912Z,97337.22
2019-05-03T17:36:49.104Z,97335.69
2019-05-03T17:39:30.063Z,97333.19
2019-05-03T17:42:05.267Z,97341.14
2019-05-03T17:44:37.278Z,97346.45
2019-05-03T17:47:07.506Z,97345.58
2019-05-03T17:49:37.722Z,97339.47
2019-05-03T17:52:10.108Z,97344.66
2019-05-03T17:54:44.937Z,97347.47
2019-05-03T17:57:19.637Z,97350.32
2019-05-03T18:00:00.585Z,97351.54
2019-05-03T18:02:35.372Z,97350.73
2019-05-03T18:05:25.247Z,97355.84
2019-05-03T18:08:02.913Z,97354.50
2019-05-03T18:10:34.738Z,97357.16
2019-05-03T18:13:05.112Z,97358.75
2019-05-03T18:15:35.588Z,97353.91
2019-05-03T18:18:05.875Z,97359.75
2019-05-03T18:20:36.087Z,97361.30
2019-05-03T18:23:06.346Z,97361.09
2019-05-03T18:25:38.527Z,97363.34
2019-05-03T18:28:08.514Z,97363.33
2019-05-03T18:30:38.788Z,97364.15
2019-05-03T18:33:09.068Z,97369.02
2019-05-03T18:35:39.376Z,97370.81
2019-05-03T18:38:09.617Z,97370.43
2019-05-03T18:40:39.832Z,97372.03
2019-05-03T18:43:20.971Z,97373.12
2019-05-03T18:46:07.789Z,97370.30
2019-05-03T18:48:38.049Z,97380.20
2019-05-03T18:51:08.261Z,97376.91
2019-05-03T18:53:38.461Z,97377.19
2019-05-03T18:56:08.736Z,97376.50
2019-05-03T18:58:38.963Z,97379.41
2019-05-03T19:01:09.578Z,97390.59
2019-05-03T19:03:39.988Z,97387.92
2019-05-03T19:06:11.823Z,97389.66
2019-05-03T19:08:44.732Z,97395.02
2019-05-03T19:11:25.767Z,97397.38
2019-05-03T19:14:04.715Z,97402.58
2019-05-03T19:16:36.803Z,97401.08
2019-05-03T19:19:08.787Z,97399.92
2019-05-03T19:21:39.090Z,97403.92
2019-05-03T19:24:09.314Z,97401.40
2019-05-03T19:26:39.552Z,97398.61
2019-05-03T19:29:09.769Z,97405.92
2019-05-03T19:31:40.148Z,97399.64
2019-05-03T19:34:10.366Z,97398.84
2019-05-03T19:36:40.586Z,97403.00
2019-05-03T19:39:11.128Z,97404.95
2019-05-03T19:41:41.372Z,97400.88
2019-05-03T19:44:11.640Z,97405.30
2019-05-03T19:46:41.881Z,97409.29
2019-05-03T19:49:12.104Z,97407.73
2019-05-03T19:51:42.338Z,97406.40
2019-05-03T19:54:14.545Z,97406.30
2019-05-03T19:56:46.828Z,97405.44
2019-05-03T19:59:34.884Z,97407.00
2019-05-03T20:02:06.895Z,97407.92
2019-05-03T20:04:58.467Z,97410.23
2019-05-03T20:07:28.768Z,97409.44
2019-05-03T20:09:59.012Z,97417.23
2019-05-03T20:12:29.301Z,97412.03
2019-05-03T20:15:01.985Z,97409.29
2019-05-03T20:17:34.428Z,97409.15
2019-05-03T20:20:06.534Z,97408.98
2019-05-03T20:22:36.707Z,97407.36
2019-05-03T20:25:07.340Z,97407.38
2019-05-03T20:27:37.639Z,97405.95
2019-05-03T20:30:08.275Z,97402.31
2019-05-03T20:32:38.497Z,97409.05
2019-05-03T20:35:14.852Z,97403.97
2019-05-03T20:37:40.851Z,97404.45
2019-05-03T20:40:11.309Z,97407.86
2019-05-03T20:42:59.189Z,97408.27
2019-05-03T20:45:36.523Z,97405.50
2019-05-03T20:48:08.447Z,97402.41
2019-05-03T20:50:38.671Z,97404.67
2019-05-03T20:53:08.966Z,97403.20
2019-05-03T20:55:39.193Z,97403.22
2019-05-03T20:58:11.409Z,97403.22
2019-05-03T21:00:41.363Z,97403.44
2019-05-03T21:03:11.566Z,97402.89
2019-05-03T21:05:41.776Z,97395.48
2019-05-03T21:08:12.018Z,97391.74
2019-05-03T21:10:42.227Z,97390.04
2019-05-03T21:13:14.546Z,97393.89
2019-05-03T21:15:46.041Z,97395.15
2019-05-03T21:18:17.962Z,97399.48
2019-05-03T21:20:49.808Z,97393.73
2019-05-03T21:23:21.671Z,97398.85
2019-05-03T21:26:12.580Z,97391.94
2019-05-03T21:28:38.556Z,97395.53
2019-05-03T21:31:08.781Z,97392.59
2019-05-03T21:33:38.994Z,97395.31
2019-05-03T21:36:09.294Z,97395.71
2019-05-03T21:38:41.053Z,97396.94
2019-05-03T21:41:11.369Z,97394.31
2019-05-03T21:43:41.584Z,97397.21
2019-05-03T21:46:15.153Z,97398.22
2019-05-03T21:48:55.260Z,97403.46
2019-05-03T21:51:25.135Z,97401.83
2019-05-03T21:53:55.336Z,97398.08
2019-05-03T21:56:25.546Z,97401.97
2019-05-03T21:58:55.768Z,97404.69
2019-05-03T22:01:26.153Z,97402.91
2019-05-03T22:03:56.607Z,97398.55
2019-05-03T22:06:26.958Z,97400.35
2019-05-03T22:08:58.409Z,97393.03
2019-05-03T22:11:28.790Z,97395.73
2019-05-03T22:14:01.746Z,97398.14
2019-05-03T22:16:36.475Z,97395.22
2019-05-03T22:19:06.717Z,97389.98
2019-05-03T22:21:38.564Z,97389.64
2019-05-03T22:24:14.780Z,97385.91
2019-05-03T22:26:58.560Z,97384.64
2019-05-03T22:29:28.927Z,97387.91
2019-05-03T22:31:59.234Z,97385.95
2019-05-03T22:34:29.455Z,97383.39
2019-05-03T22:36:59.679Z,97379.56
2019-05-03T22:39:29.903Z,97376.27
2019-05-03T22:42:00.124Z,97370.76
2019-05-03T22:44:30.336Z,97368.02
2019-05-03T22:47:00.534Z,97368.09
2019-05-03T22:49:30.729Z,97359.82
2019-05-03T22:52:01.060Z,97364.25
2019-05-03T22:54:31.256Z,97363.23
2019-05-03T22:57:01.474Z,97361.91
2019-05-03T22:59:31.820Z,97358.17
2019-05-03T23:02:02.043Z,97355.74
2019-05-03T23:04:32.259Z,97357.81
2019-05-03T23:07:02.464Z,97352.53
2019-05-03T23:09:32.932Z,97354.71
2019-05-03T23:12:05.387Z,97350.23
2019-05-03T23:14:35.584Z,97346.94
2019-05-03T23:17:06.272Z,97347.70
2019-05-03T23:19:38.098Z,97343.56
2019-05-03T23:22:10.891Z,97344.33
2019-05-03T23:24:41.119Z,97341.37
2019-05-03T23:27:11.339Z,97339.25
2019-05-03T23:29:41.568Z,97341.37
2019-05-03T23:32:11.918Z,97331.93
2019-05-03T23:34:42.125Z,97327.20
2019-05-03T23:37:12.327Z,97329.81
2019-05-03T23:39:44.205Z,97323.60
2019-05-03T23:42:15.471Z,97320.98
2019-05-03T23:44:45.869Z,97323.56
2019-05-03T23:47:25.193Z,97322.09
2019-05-03T23:49:55.619Z,97315.40
2019-05-03T23:52:27.451Z,97303.36
2019-05-03T23:55:05.825Z,97297.43
2019-05-03T23:57:36.056Z,97293.50
